Terminal Aerodrome Forecast
Issued by NWS Quad Cities IA IL

Home | Current Version | Previous Version | Text Only | Print | Product List | Glossary On
Versions: 1 2 3 4 5 6 7 8 9 10 11 12 13 14 15 16 17 18 19 20 21 22 23 24 25 26 27 28 29 30 31 32 33
057
FTUS43 KDVN 221740
TAFMLI
TAF
KMLI 221740Z 2218/2318 20006KT P6SM SCT050 BKN120
     FM230100 12004KT P6SM BKN200
     FM230900 VRB03KT 4SM BR SCT120
     FM231400 11004KT P6SM BKN120=

USA.gov is the U.S. government's official web portal to all federal, state and local government web resources and services.